sensor_id;sensor_type;location;lat;lon;timestamp;P1;durP1;ratioP1;P2;durP2;ratioP2
4933;SDS011;2482;49.154;8.254;2023-04-03T00:01:06;5.53;;;1.97;;
4933;SDS011;2482;49.154;8.254;2023-04-03T00:03:33;4.97;;;2.10;;
4933;SDS011;2482;49.154;8.254;2023-04-03T00:06:01;2.23;;;2.03;;
4933;SDS011;2482;49.154;8.254;2023-04-03T00:08:28;3.47;;;2.00;;
4933;SDS011;2482;49.154;8.254;2023-04-03T00:10:57;3.63;;;2.27;;
4933;SDS011;2482;49.154;8.254;2023-04-03T00:13:24;2.57;;;2.33;;
4933;SDS011;2482;49.154;8.254;2023-04-03T00:15:52;2.30;;;2.10;;
4933;SDS011;2482;49.154;8.254;2023-04-03T00:18:19;2.57;;;2.37;;
4933;SDS011;2482;49.154;8.254;2023-04-03T00:20:47;3.50;;;2.13;;
4933;SDS011;2482;49.154;8.254;2023-04-03T00:23:15;2.43;;;2.20;;
4933;SDS011;2482;49.154;8.254;2023-04-03T00:25:43;3.53;;;2.17;;
4933;SDS011;2482;49.154;8.254;2023-04-03T00:28:10;2.80;;;2.30;;
4933;SDS011;2482;49.154;8.254;2023-04-03T00:30:37;3.83;;;2.40;;
4933;SDS011;2482;49.154;8.254;2023-04-03T00:33:04;2.43;;;2.20;;
4933;SDS011;2482;49.154;8.254;2023-04-03T00:35:33;5.63;;;2.30;;
4933;SDS011;2482;49.154;8.254;2023-04-03T00:38:01;2.87;;;1.93;;
4933;SDS011;2482;49.154;8.254;2023-04-03T00:40:32;2.40;;;2.20;;
4933;SDS011;2482;49.154;8.254;2023-04-03T00:43:05;3.13;;;2.13;;
4933;SDS011;2482;49.154;8.254;2023-04-03T00:45:43;3.80;;;2.50;;
4933;SDS011;2482;49.154;8.254;2023-04-03T00:48:17;2.40;;;2.00;;
4933;SDS011;2482;49.154;8.254;2023-04-03T00:50:49;2.60;;;2.40;;
4933;SDS011;2482;49.154;8.254;2023-04-03T00:53:19;3.00;;;2.27;;
4933;SDS011;2482;49.154;8.254;2023-04-03T00:55:56;3.33;;;1.77;;
4933;SDS011;2482;49.154;8.254;2023-04-03T00:58:27;7.73;;;2.20;;
4933;SDS011;2482;49.154;8.254;2023-04-03T01:01:02;2.47;;;2.27;;
4933;SDS011;2482;49.154;8.254;2023-04-03T01:03:33;3.07;;;2.00;;
4933;SDS011;2482;49.154;8.254;2023-04-03T01:06:00;4.03;;;2.37;;
4933;SDS011;2482;49.154;8.254;2023-04-03T01:08:27;3.13;;;1.97;;
4933;SDS011;2482;49.154;8.254;2023-04-03T01:10:55;3.90;;;2.13;;
4933;SDS011;2482;49.154;8.254;2023-04-03T01:13:26;3.30;;;2.00;;
4933;SDS011;2482;49.154;8.254;2023-04-03T01:16:00;2.20;;;2.00;;
4933;SDS011;2482;49.154;8.254;2023-04-03T01:18:29;3.80;;;2.10;;
4933;SDS011;2482;49.154;8.254;2023-04-03T01:21:06;1.90;;;1.80;;
4933;SDS011;2482;49.154;8.254;2023-04-03T01:26:55;1.97;;;1.87;;
4933;SDS011;2482;49.154;8.254;2023-04-03T01:29:22;2.27;;;2.07;;
4933;SDS011;2482;49.154;8.254;2023-04-03T01:34:22;3.50;;;2.33;;
4933;SDS011;2482;49.154;8.254;2023-04-03T01:36:51;4.07;;;2.70;;
4933;SDS011;2482;49.154;8.254;2023-04-03T01:39:18;2.27;;;2.07;;
4933;SDS011;2482;49.154;8.254;2023-04-03T01:41:47;2.20;;;2.03;;
4933;SDS011;2482;49.154;8.254;2023-04-03T01:44:14;3.23;;;2.27;;
4933;SDS011;2482;49.154;8.254;2023-04-03T01:46:41;2.67;;;1.97;;
4933;SDS011;2482;49.154;8.254;2023-04-03T01:49:08;4.10;;;2.40;;
4933;SDS011;2482;49.154;8.254;2023-04-03T01:51:36;3.23;;;2.17;;
4933;SDS011;2482;49.154;8.254;2023-04-03T01:54:03;4.17;;;2.00;;
4933;SDS011;2482;49.154;8.254;2023-04-03T01:56:30;2.47;;;2.13;;
4933;SDS011;2482;49.154;8.254;2023-04-03T01:58:57;2.43;;;2.10;;
4933;SDS011;2482;49.154;8.254;2023-04-03T02:01:24;2.33;;;2.13;;
4933;SDS011;2482;49.154;8.254;2023-04-03T02:03:52;3.63;;;2.10;;
4933;SDS011;2482;49.154;8.254;2023-04-03T02:06:19;4.20;;;1.97;;
4933;SDS011;2482;49.154;8.254;2023-04-03T02:08:46;2.47;;;2.27;;
4933;SDS011;2482;49.154;8.254;2023-04-03T02:11:13;2.20;;;2.07;;
4933;SDS011;2482;49.154;8.254;2023-04-03T02:13:40;6.07;;;2.83;;
4933;SDS011;2482;49.154;8.254;2023-04-03T02:16:08;2.80;;;2.00;;
4933;SDS011;2482;49.154;8.254;2023-04-03T02:18:37;3.57;;;2.40;;
4933;SDS011;2482;49.154;8.254;2023-04-03T02:21:04;3.10;;;1.77;;
4933;SDS011;2482;49.154;8.254;2023-04-03T02:23:31;2.90;;;2.23;;
4933;SDS011;2482;49.154;8.254;2023-04-03T02:26:06;2.67;;;2.10;;
4933;SDS011;2482;49.154;8.254;2023-04-03T02:28:36;2.20;;;2.03;;
4933;SDS011;2482;49.154;8.254;2023-04-03T02:31:04;2.40;;;2.20;;
4933;SDS011;2482;49.154;8.254;2023-04-03T02:33:33;3.83;;;2.10;;
4933;SDS011;2482;49.154;8.254;2023-04-03T02:36:04;2.70;;;2.00;;
4933;SDS011;2482;49.154;8.254;2023-04-03T02:38:33;3.40;;;2.23;;
4933;SDS011;2482;49.154;8.254;2023-04-03T02:41:00;2.23;;;2.00;;
4933;SDS011;2482;49.154;8.254;2023-04-03T02:43:32;3.53;;;1.90;;
4933;SDS011;2482;49.154;8.254;2023-04-03T02:46:00;2.97;;;2.20;;
4933;SDS011;2482;49.154;8.254;2023-04-03T02:48:27;2.30;;;2.10;;
4933;SDS011;2482;49.154;8.254;2023-04-03T02:50:54;3.27;;;2.10;;
4933;SDS011;2482;49.154;8.254;2023-04-03T02:53:21;2.07;;;1.80;;
4933;SDS011;2482;49.154;8.254;2023-04-03T02:55:49;7.37;;;2.13;;
4933;SDS011;2482;49.154;8.254;2023-04-03T02:58:16;3.43;;;2.37;;
4933;SDS011;2482;49.154;8.254;2023-04-03T03:00:43;6.27;;;1.90;;
4933;SDS011;2482;49.154;8.254;2023-04-03T03:03:10;5.57;;;2.20;;
4933;SDS011;2482;49.154;8.254;2023-04-03T03:05:37;2.50;;;2.30;;
4933;SDS011;2482;49.154;8.254;2023-04-03T03:08:04;3.00;;;2.20;;
4933;SDS011;2482;49.154;8.254;2023-04-03T03:10:31;3.03;;;2.10;;
4933;SDS011;2482;49.154;8.254;2023-04-03T03:12:58;4.00;;;2.03;;
4933;SDS011;2482;49.154;8.254;2023-04-03T03:15:25;4.10;;;2.00;;
4933;SDS011;2482;49.154;8.254;2023-04-03T03:17:52;2.43;;;2.23;;
4933;SDS011;2482;49.154;8.254;2023-04-03T03:20:19;4.47;;;2.00;;
4933;SDS011;2482;49.154;8.254;2023-04-03T03:22:47;2.20;;;2.10;;
4933;SDS011;2482;49.154;8.254;2023-04-03T03:25:13;2.20;;;2.00;;
4933;SDS011;2482;49.154;8.254;2023-04-03T03:27:41;3.13;;;1.80;;
4933;SDS011;2482;49.154;8.254;2023-04-03T03:30:08;2.37;;;2.00;;
4933;SDS011;2482;49.154;8.254;2023-04-03T03:32:35;4.80;;;2.07;;
4933;SDS011;2482;49.154;8.254;2023-04-03T03:35:02;5.93;;;2.00;;
4933;SDS011;2482;49.154;8.254;2023-04-03T03:37:29;2.00;;;1.80;;
4933;SDS011;2482;49.154;8.254;2023-04-03T03:39:56;4.67;;;2.00;;
4933;SDS011;2482;49.154;8.254;2023-04-03T03:42:23;1.90;;;1.80;;
4933;SDS011;2482;49.154;8.254;2023-04-03T03:44:50;3.43;;;2.30;;
4933;SDS011;2482;49.154;8.254;2023-04-03T03:47:18;3.90;;;1.83;;
4933;SDS011;2482;49.154;8.254;2023-04-03T03:49:45;2.13;;;1.93;;
4933;SDS011;2482;49.154;8.254;2023-04-03T03:52:12;2.00;;;1.80;;
4933;SDS011;2482;49.154;8.254;2023-04-03T03:54:39;2.30;;;2.10;;
4933;SDS011;2482;49.154;8.254;2023-04-03T03:57:06;3.60;;;2.37;;
4933;SDS011;2482;49.154;8.254;2023-04-03T03:59:33;2.67;;;1.73;;
4933;SDS011;2482;49.154;8.254;2023-04-03T04:02:00;3.10;;;2.03;;
4933;SDS011;2482;49.154;8.254;2023-04-03T04:04:27;2.60;;;2.27;;
4933;SDS011;2482;49.154;8.254;2023-04-03T04:06:54;3.63;;;2.73;;
4933;SDS011;2482;49.154;8.254;2023-04-03T04:09:21;4.37;;;2.07;;
4933;SDS011;2482;49.154;8.254;2023-04-03T04:11:48;5.47;;;1.80;;
4933;SDS011;2482;49.154;8.254;2023-04-03T04:14:15;3.43;;;1.80;;
4933;SDS011;2482;49.154;8.254;2023-04-03T04:16:42;2.00;;;1.90;;
4933;SDS011;2482;49.154;8.254;2023-04-03T04:19:09;3.00;;;2.30;;
4933;SDS011;2482;49.154;8.254;2023-04-03T04:21:36;2.33;;;2.13;;
4933;SDS011;2482;49.154;8.254;2023-04-03T04:24:03;2.70;;;2.10;;
4933;SDS011;2482;49.154;8.254;2023-04-03T04:26:30;2.83;;;2.10;;
4933;SDS011;2482;49.154;8.254;2023-04-03T04:28:57;4.30;;;2.27;;
4933;SDS011;2482;49.154;8.254;2023-04-03T04:31:24;4.10;;;2.67;;
4933;SDS011;2482;49.154;8.254;2023-04-03T04:33:52;3.03;;;2.37;;
4933;SDS011;2482;49.154;8.254;2023-04-03T04:36:19;2.63;;;2.40;;
4933;SDS011;2482;49.154;8.254;2023-04-03T04:38:47;2.07;;;1.90;;
4933;SDS011;2482;49.154;8.254;2023-04-03T04:41:13;3.60;;;2.63;;
4933;SDS011;2482;49.154;8.254;2023-04-03T04:43:40;4.80;;;2.80;;
4933;SDS011;2482;49.154;8.254;2023-04-03T04:46:08;2.53;;;2.03;;
4933;SDS011;2482;49.154;8.254;2023-04-03T04:48:39;2.90;;;2.50;;
4933;SDS011;2482;49.154;8.254;2023-04-03T04:51:06;2.60;;;2.40;;
4933;SDS011;2482;49.154;8.254;2023-04-03T04:53:34;2.63;;;2.33;;
4933;SDS011;2482;49.154;8.254;2023-04-03T04:56:01;3.37;;;1.97;;
4933;SDS011;2482;49.154;8.254;2023-04-03T04:58:28;3.83;;;2.60;;
4933;SDS011;2482;49.154;8.254;2023-04-03T05:00:58;3.03;;;2.83;;
4933;SDS011;2482;49.154;8.254;2023-04-03T05:03:26;2.87;;;2.67;;
4933;SDS011;2482;49.154;8.254;2023-04-03T05:05:53;5.77;;;3.10;;
4933;SDS011;2482;49.154;8.254;2023-04-03T05:08:20;3.83;;;2.80;;
4933;SDS011;2482;49.154;8.254;2023-04-03T05:10:47;3.73;;;2.50;;
4933;SDS011;2482;49.154;8.254;2023-04-03T05:13:14;4.70;;;3.00;;
4933;SDS011;2482;49.154;8.254;2023-04-03T05:15:41;3.30;;;3.00;;
4933;SDS011;2482;49.154;8.254;2023-04-03T05:18:08;7.17;;;2.60;;
4933;SDS011;2482;49.154;8.254;2023-04-03T05:20:36;2.93;;;2.63;;
4933;SDS011;2482;49.154;8.254;2023-04-03T05:23:03;4.20;;;3.00;;
4933;SDS011;2482;49.154;8.254;2023-04-03T05:25:30;4.73;;;2.70;;
4933;SDS011;2482;49.154;8.254;2023-04-03T05:27:57;2.87;;;2.67;;
4933;SDS011;2482;49.154;8.254;2023-04-03T05:30:24;7.10;;;2.77;;
4933;SDS011;2482;49.154;8.254;2023-04-03T05:32:51;3.30;;;2.90;;
4933;SDS011;2482;49.154;8.254;2023-04-03T05:35:18;5.60;;;2.80;;
4933;SDS011;2482;49.154;8.254;2023-04-03T05:37:45;3.00;;;2.80;;
4933;SDS011;2482;49.154;8.254;2023-04-03T05:40:12;3.60;;;2.80;;
4933;SDS011;2482;49.154;8.254;2023-04-03T05:42:39;3.70;;;2.97;;
4933;SDS011;2482;49.154;8.254;2023-04-03T05:45:06;3.97;;;2.60;;
4933;SDS011;2482;49.154;8.254;2023-04-03T05:47:33;2.90;;;2.37;;
4933;SDS011;2482;49.154;8.254;2023-04-03T05:50:01;5.27;;;2.63;;
4933;SDS011;2482;49.154;8.254;2023-04-03T05:52:36;4.37;;;2.90;;
4933;SDS011;2482;49.154;8.254;2023-04-03T05:55:05;3.43;;;3.10;;
4933;SDS011;2482;49.154;8.254;2023-04-03T05:57:32;2.67;;;2.47;;
4933;SDS011;2482;49.154;8.254;2023-04-03T05:59:59;3.30;;;2.70;;
4933;SDS011;2482;49.154;8.254;2023-04-03T06:02:26;6.63;;;2.77;;
4933;SDS011;2482;49.154;8.254;2023-04-03T06:04:53;2.77;;;2.27;;
4933;SDS011;2482;49.154;8.254;2023-04-03T06:07:21;6.93;;;3.50;;
4933;SDS011;2482;49.154;8.254;2023-04-03T06:09:52;2.50;;;2.30;;
4933;SDS011;2482;49.154;8.254;2023-04-03T06:12:19;3.60;;;2.70;;
4933;SDS011;2482;49.154;8.254;2023-04-03T06:14:47;3.70;;;2.90;;
4933;SDS011;2482;49.154;8.254;2023-04-03T06:17:15;5.63;;;2.77;;
4933;SDS011;2482;49.154;8.254;2023-04-03T06:19:44;3.40;;;2.90;;
4933;SDS011;2482;49.154;8.254;2023-04-03T06:22:12;3.10;;;2.33;;
4933;SDS011;2482;49.154;8.254;2023-04-03T06:24:39;6.17;;;2.60;;
4933;SDS011;2482;49.154;8.254;2023-04-03T06:27:06;4.10;;;2.90;;
4933;SDS011;2482;49.154;8.254;2023-04-03T06:29:34;3.03;;;2.70;;
4933;SDS011;2482;49.154;8.254;2023-04-03T06:32:01;3.63;;;2.70;;
4933;SDS011;2482;49.154;8.254;2023-04-03T06:34:28;2.93;;;2.63;;
4933;SDS011;2482;49.154;8.254;2023-04-03T06:36:55;5.37;;;2.77;;
4933;SDS011;2482;49.154;8.254;2023-04-03T06:39:22;2.60;;;2.37;;
4933;SDS011;2482;49.154;8.254;2023-04-03T06:41:50;5.87;;;2.90;;
4933;SDS011;2482;49.154;8.254;2023-04-03T06:44:17;4.00;;;2.83;;
4933;SDS011;2482;49.154;8.254;2023-04-03T06:46:45;3.80;;;2.80;;
4933;SDS011;2482;49.154;8.254;2023-04-03T06:49:12;3.00;;;2.63;;
4933;SDS011;2482;49.154;8.254;2023-04-03T06:51:41;2.37;;;2.17;;
4933;SDS011;2482;49.154;8.254;2023-04-03T06:54:08;2.40;;;2.20;;
4933;SDS011;2482;49.154;8.254;2023-04-03T06:56:35;2.43;;;2.30;;
4933;SDS011;2482;49.154;8.254;2023-04-03T06:59:02;2.53;;;2.20;;
4933;SDS011;2482;49.154;8.254;2023-04-03T07:01:30;2.60;;;2.40;;
4933;SDS011;2482;49.154;8.254;2023-04-03T07:03:57;5.77;;;2.60;;
4933;SDS011;2482;49.154;8.254;2023-04-03T07:06:24;2.60;;;2.40;;
4933;SDS011;2482;49.154;8.254;2023-04-03T07:08:53;3.80;;;2.70;;
4933;SDS011;2482;49.154;8.254;2023-04-03T07:11:21;3.73;;;2.00;;
4933;SDS011;2482;49.154;8.254;2023-04-03T07:13:49;2.67;;;2.47;;
4933;SDS011;2482;49.154;8.254;2023-04-03T07:16:16;3.70;;;2.53;;
4933;SDS011;2482;49.154;8.254;2023-04-03T07:18:44;3.47;;;2.87;;
4933;SDS011;2482;49.154;8.254;2023-04-03T07:21:12;2.63;;;2.17;;
4933;SDS011;2482;49.154;8.254;2023-04-03T07:23:39;3.50;;;2.67;;
4933;SDS011;2482;49.154;8.254;2023-04-03T07:26:06;4.10;;;2.83;;
4933;SDS011;2482;49.154;8.254;2023-04-03T07:28:34;3.00;;;2.73;;
4933;SDS011;2482;49.154;8.254;2023-04-03T07:31:04;2.83;;;2.63;;
4933;SDS011;2482;49.154;8.254;2023-04-03T07:33:35;4.60;;;3.07;;
4933;SDS011;2482;49.154;8.254;2023-04-03T07:36:04;4.73;;;2.70;;
4933;SDS011;2482;49.154;8.254;2023-04-03T07:38:36;5.33;;;2.90;;
4933;SDS011;2482;49.154;8.254;2023-04-03T07:41:03;3.77;;;2.63;;
4933;SDS011;2482;49.154;8.254;2023-04-03T07:43:30;2.67;;;2.30;;
4933;SDS011;2482;49.154;8.254;2023-04-03T07:45:58;7.80;;;2.80;;
4933;SDS011;2482;49.154;8.254;2023-04-03T07:48:25;8.60;;;3.37;;
4933;SDS011;2482;49.154;8.254;2023-04-03T07:50:52;5.10;;;2.60;;
4933;SDS011;2482;49.154;8.254;2023-04-03T07:53:19;2.60;;;2.17;;
4933;SDS011;2482;49.154;8.254;2023-04-03T07:55:47;4.40;;;2.30;;
4933;SDS011;2482;49.154;8.254;2023-04-03T07:58:18;4.50;;;2.80;;
4933;SDS011;2482;49.154;8.254;2023-04-03T08:00:45;3.47;;;2.67;;
4933;SDS011;2482;49.154;8.254;2023-04-03T08:03:13;5.03;;;2.60;;
4933;SDS011;2482;49.154;8.254;2023-04-03T08:05:47;4.00;;;2.27;;
4933;SDS011;2482;49.154;8.254;2023-04-03T08:08:16;2.47;;;1.87;;
4933;SDS011;2482;49.154;8.254;2023-04-03T08:10:50;2.70;;;2.37;;
4933;SDS011;2482;49.154;8.254;2023-04-03T08:13:19;2.83;;;2.27;;
4933;SDS011;2482;49.154;8.254;2023-04-03T08:15:47;7.70;;;2.50;;
4933;SDS011;2482;49.154;8.254;2023-04-03T08:18:14;2.97;;;2.70;;
4933;SDS011;2482;49.154;8.254;2023-04-03T08:20:42;2.50;;;2.30;;
4933;SDS011;2482;49.154;8.254;2023-04-03T08:23:10;3.70;;;2.30;;
4933;SDS011;2482;49.154;8.254;2023-04-03T08:25:38;2.70;;;1.93;;
4933;SDS011;2482;49.154;8.254;2023-04-03T08:28:07;3.30;;;2.17;;
4933;SDS011;2482;49.154;8.254;2023-04-03T08:30:35;4.80;;;2.70;;
4933;SDS011;2482;49.154;8.254;2023-04-03T08:33:06;2.53;;;2.30;;
4933;SDS011;2482;49.154;8.254;2023-04-03T08:35:37;3.47;;;2.23;;
4933;SDS011;2482;49.154;8.254;2023-04-03T08:38:07;3.80;;;2.10;;
4933;SDS011;2482;49.154;8.254;2023-04-03T08:40:35;2.43;;;2.23;;
4933;SDS011;2482;49.154;8.254;2023-04-03T08:45:50;4.43;;;2.20;;
4933;SDS011;2482;49.154;8.254;2023-04-03T08:51:13;3.90;;;1.80;;
4933;SDS011;2482;49.154;8.254;2023-04-03T08:53:45;3.73;;;2.23;;
4933;SDS011;2482;49.154;8.254;2023-04-03T08:56:22;4.40;;;1.90;;
4933;SDS011;2482;49.154;8.254;2023-04-03T08:58:52;2.53;;;1.67;;
4933;SDS011;2482;49.154;8.254;2023-04-03T09:01:32;2.30;;;1.90;;
4933;SDS011;2482;49.154;8.254;2023-04-03T09:04:12;1.80;;;1.70;;
4933;SDS011;2482;49.154;8.254;2023-04-03T09:06:54;4.03;;;2.13;;
4933;SDS011;2482;49.154;8.254;2023-04-03T09:09:33;8.57;;;1.90;;
4933;SDS011;2482;49.154;8.254;2023-04-03T09:15:10;1.60;;;1.50;;
4933;SDS011;2482;49.154;8.254;2023-04-03T09:23:24;3.83;;;1.70;;
4933;SDS011;2482;49.154;8.254;2023-04-03T09:28:58;1.27;;;1.20;;
4933;SDS011;2482;49.154;8.254;2023-04-03T09:31:30;3.73;;;1.90;;
4933;SDS011;2482;49.154;8.254;2023-04-03T09:34:10;2.57;;;1.60;;
4933;SDS011;2482;49.154;8.254;2023-04-03T09:36:50;1.77;;;1.53;;
4933;SDS011;2482;49.154;8.254;2023-04-03T09:39:25;4.83;;;1.40;;
4933;SDS011;2482;49.154;8.254;2023-04-03T09:41:56;2.43;;;1.73;;
4933;SDS011;2482;49.154;8.254;2023-04-03T09:44:35;2.63;;;1.57;;
4933;SDS011;2482;49.154;8.254;2023-04-03T09:52:49;2.63;;;1.40;;
4933;SDS011;2482;49.154;8.254;2023-04-03T09:55:27;2.40;;;1.30;;
4933;SDS011;2482;49.154;8.254;2023-04-03T09:57:57;7.90;;;2.70;;
4933;SDS011;2482;49.154;8.254;2023-04-03T10:03:05;2.60;;;1.43;;
4933;SDS011;2482;49.154;8.254;2023-04-03T10:05:50;3.20;;;1.40;;
4933;SDS011;2482;49.154;8.254;2023-04-03T10:08:25;5.80;;;1.70;;
4933;SDS011;2482;49.154;8.254;2023-04-03T10:13:36;6.80;;;1.70;;
4933;SDS011;2482;49.154;8.254;2023-04-03T10:16:24;4.03;;;1.60;;
4933;SDS011;2482;49.154;8.254;2023-04-03T10:19:17;2.23;;;1.30;;
4933;SDS011;2482;49.154;8.254;2023-04-03T10:22:08;5.40;;;1.47;;
4933;SDS011;2482;49.154;8.254;2023-04-03T10:24:52;2.10;;;1.63;;
4933;SDS011;2482;49.154;8.254;2023-04-03T10:28:00;3.97;;;1.30;;
4933;SDS011;2482;49.154;8.254;2023-04-03T10:31:04;4.43;;;1.43;;
4933;SDS011;2482;49.154;8.254;2023-04-03T10:36:45;1.53;;;1.30;;
4933;SDS011;2482;49.154;8.254;2023-04-03T10:42:28;4.50;;;1.50;;
4933;SDS011;2482;49.154;8.254;2023-04-03T10:54:08;1.53;;;1.37;;
4933;SDS011;2482;49.154;8.254;2023-04-03T10:57:04;2.60;;;1.63;;
4933;SDS011;2482;49.154;8.254;2023-04-03T11:02:39;1.43;;;1.30;;
4933;SDS011;2482;49.154;8.254;2023-04-03T11:07:48;2.57;;;1.13;;
4933;SDS011;2482;49.154;8.254;2023-04-03T11:10:29;1.90;;;1.27;;
4933;SDS011;2482;49.154;8.254;2023-04-03T11:13:15;4.03;;;1.40;;
4933;SDS011;2482;49.154;8.254;2023-04-03T11:15:49;1.93;;;1.40;;
4933;SDS011;2482;49.154;8.254;2023-04-03T11:18:25;1.27;;;1.13;;
4933;SDS011;2482;49.154;8.254;2023-04-03T11:21:02;3.33;;;1.20;;
4933;SDS011;2482;49.154;8.254;2023-04-03T11:23:56;2.27;;;1.30;;
4933;SDS011;2482;49.154;8.254;2023-04-03T11:26:27;2.70;;;1.30;;
4933;SDS011;2482;49.154;8.254;2023-04-03T11:29:01;2.43;;;1.20;;
4933;SDS011;2482;49.154;8.254;2023-04-03T11:35:07;4.27;;;1.30;;
4933;SDS011;2482;49.154;8.254;2023-04-03T11:37:39;2.43;;;1.33;;
4933;SDS011;2482;49.154;8.254;2023-04-03T11:42:47;1.57;;;1.20;;
4933;SDS011;2482;49.154;8.254;2023-04-03T11:47:53;3.97;;;1.17;;
4933;SDS011;2482;49.154;8.254;2023-04-03T11:58:17;2.03;;;1.30;;
4933;SDS011;2482;49.154;8.254;2023-04-03T12:01:46;1.97;;;1.13;;
4933;SDS011;2482;49.154;8.254;2023-04-03T12:04:19;2.60;;;1.27;;
4933;SDS011;2482;49.154;8.254;2023-04-03T12:06:54;2.00;;;1.30;;
4933;SDS011;2482;49.154;8.254;2023-04-03T12:15:20;1.53;;;1.17;;
4933;SDS011;2482;49.154;8.254;2023-04-03T12:29:45;2.13;;;1.30;;
4933;SDS011;2482;49.154;8.254;2023-04-03T12:35:39;1.57;;;1.10;;
4933;SDS011;2482;49.154;8.254;2023-04-03T12:46:50;5.87;;;1.50;;
4933;SDS011;2482;49.154;8.254;2023-04-03T12:51:55;1.30;;;1.20;;
4933;SDS011;2482;49.154;8.254;2023-04-03T12:54:23;2.40;;;1.53;;
4933;SDS011;2482;49.154;8.254;2023-04-03T12:59:45;1.40;;;1.20;;
4933;SDS011;2482;49.154;8.254;2023-04-03T13:02:24;2.80;;;1.40;;
4933;SDS011;2482;49.154;8.254;2023-04-03T13:04:57;1.40;;;1.30;;
4933;SDS011;2482;49.154;8.254;2023-04-03T13:07:33;2.20;;;1.80;;
4933;SDS011;2482;49.154;8.254;2023-04-03T13:12:56;2.60;;;1.53;;
4933;SDS011;2482;49.154;8.254;2023-04-03T13:15:39;2.20;;;1.50;;
4933;SDS011;2482;49.154;8.254;2023-04-03T13:18:28;2.07;;;1.20;;
4933;SDS011;2482;49.154;8.254;2023-04-03T13:21:08;1.73;;;1.60;;
4933;SDS011;2482;49.154;8.254;2023-04-03T13:23:43;1.40;;;1.30;;
4933;SDS011;2482;49.154;8.254;2023-04-03T13:26:18;5.17;;;1.47;;
4933;SDS011;2482;49.154;8.254;2023-04-03T13:28:48;3.50;;;1.60;;
4933;SDS011;2482;49.154;8.254;2023-04-03T13:31:21;2.67;;;1.47;;
4933;SDS011;2482;49.154;8.254;2023-04-03T13:36:45;2.57;;;1.20;;
4933;SDS011;2482;49.154;8.254;2023-04-03T13:39:30;3.00;;;1.60;;
4933;SDS011;2482;49.154;8.254;2023-04-03T13:42:16;4.80;;;1.60;;
4933;SDS011;2482;49.154;8.254;2023-04-03T13:45:10;2.90;;;1.60;;
4933;SDS011;2482;49.154;8.254;2023-04-03T13:47:51;2.63;;;1.60;;
4933;SDS011;2482;49.154;8.254;2023-04-03T13:50:22;1.50;;;1.40;;
4933;SDS011;2482;49.154;8.254;2023-04-03T13:52:53;2.30;;;1.37;;
4933;SDS011;2482;49.154;8.254;2023-04-03T13:55:52;1.47;;;1.37;;
4933;SDS011;2482;49.154;8.254;2023-04-03T13:58:24;2.30;;;1.77;;
4933;SDS011;2482;49.154;8.254;2023-04-03T14:03:45;3.53;;;1.40;;
4933;SDS011;2482;49.154;8.254;2023-04-03T14:06:23;2.10;;;1.60;;
4933;SDS011;2482;49.154;8.254;2023-04-03T14:08:51;1.50;;;1.40;;
4933;SDS011;2482;49.154;8.254;2023-04-03T14:11:22;2.60;;;1.67;;
4933;SDS011;2482;49.154;8.254;2023-04-03T14:13:57;1.50;;;1.40;;
4933;SDS011;2482;49.154;8.254;2023-04-03T14:16:29;2.80;;;1.30;;
4933;SDS011;2482;49.154;8.254;2023-04-03T14:18:59;3.07;;;1.57;;
4933;SDS011;2482;49.154;8.254;2023-04-03T14:21:26;3.50;;;1.80;;
4933;SDS011;2482;49.154;8.254;2023-04-03T14:23:53;3.10;;;1.90;;
4933;SDS011;2482;49.154;8.254;2023-04-03T14:26:21;2.33;;;1.50;;
4933;SDS011;2482;49.154;8.254;2023-04-03T14:28:52;1.40;;;1.30;;
4933;SDS011;2482;49.154;8.254;2023-04-03T14:31:21;5.60;;;1.73;;
4933;SDS011;2482;49.154;8.254;2023-04-03T14:33:49;2.87;;;1.83;;
4933;SDS011;2482;49.154;8.254;2023-04-03T14:36:21;1.83;;;1.60;;
4933;SDS011;2482;49.154;8.254;2023-04-03T14:38:51;1.97;;;1.30;;
4933;SDS011;2482;49.154;8.254;2023-04-03T14:41:20;2.80;;;1.57;;
4933;SDS011;2482;49.154;8.254;2023-04-03T14:43:50;3.07;;;1.60;;
4933;SDS011;2482;49.154;8.254;2023-04-03T14:46:36;4.77;;;1.63;;
4933;SDS011;2482;49.154;8.254;2023-04-03T14:49:24;1.50;;;1.27;;
4933;SDS011;2482;49.154;8.254;2023-04-03T14:51:55;3.83;;;1.27;;
4933;SDS011;2482;49.154;8.254;2023-04-03T14:54:23;5.53;;;2.17;;
4933;SDS011;2482;49.154;8.254;2023-04-03T14:56:54;9.23;;;2.83;;
4933;SDS011;2482;49.154;8.254;2023-04-03T14:59:22;4.50;;;1.50;;
4933;SDS011;2482;49.154;8.254;2023-04-03T15:01:49;4.97;;;1.73;;
4933;SDS011;2482;49.154;8.254;2023-04-03T15:04:18;1.67;;;1.43;;
4933;SDS011;2482;49.154;8.254;2023-04-03T15:06:47;1.83;;;1.23;;
4933;SDS011;2482;49.154;8.254;2023-04-03T15:09:18;2.80;;;1.73;;
4933;SDS011;2482;49.154;8.254;2023-04-03T15:11:48;2.37;;;1.63;;
4933;SDS011;2482;49.154;8.254;2023-04-03T15:14:18;2.17;;;1.57;;
4933;SDS011;2482;49.154;8.254;2023-04-03T15:17:03;2.77;;;1.20;;
4933;SDS011;2482;49.154;8.254;2023-04-03T15:19:36;1.63;;;1.30;;
4933;SDS011;2482;49.154;8.254;2023-04-03T15:22:05;2.87;;;1.40;;
4933;SDS011;2482;49.154;8.254;2023-04-03T15:24:32;2.90;;;1.30;;
4933;SDS011;2482;49.154;8.254;2023-04-03T15:26:59;3.13;;;1.57;;
4933;SDS011;2482;49.154;8.254;2023-04-03T15:29:27;1.67;;;1.20;;
4933;SDS011;2482;49.154;8.254;2023-04-03T15:31:54;3.10;;;1.50;;
4933;SDS011;2482;49.154;8.254;2023-04-03T15:34:22;1.97;;;1.77;;
4933;SDS011;2482;49.154;8.254;2023-04-03T15:36:49;2.10;;;1.30;;
4933;SDS011;2482;49.154;8.254;2023-04-03T15:39:19;2.77;;;1.57;;
4933;SDS011;2482;49.154;8.254;2023-04-03T15:41:47;2.20;;;1.50;;
4933;SDS011;2482;49.154;8.254;2023-04-03T15:44:14;5.80;;;1.40;;
4933;SDS011;2482;49.154;8.254;2023-04-03T15:46:44;2.43;;;1.53;;
4933;SDS011;2482;49.154;8.254;2023-04-03T15:49:20;3.73;;;1.50;;
4933;SDS011;2482;49.154;8.254;2023-04-03T15:51:48;1.73;;;1.43;;
4933;SDS011;2482;49.154;8.254;2023-04-03T15:54:15;2.47;;;1.57;;
4933;SDS011;2482;49.154;8.254;2023-04-03T15:56:42;2.20;;;1.80;;
4933;SDS011;2482;49.154;8.254;2023-04-03T15:59:10;2.03;;;1.53;;
4933;SDS011;2482;49.154;8.254;2023-04-03T16:01:37;1.77;;;1.53;;
4933;SDS011;2482;49.154;8.254;2023-04-03T16:04:07;1.93;;;1.37;;
4933;SDS011;2482;49.154;8.254;2023-04-03T16:06:37;2.20;;;1.57;;
4933;SDS011;2482;49.154;8.254;2023-04-03T16:09:04;3.37;;;1.40;;
4933;SDS011;2482;49.154;8.254;2023-04-03T16:11:32;1.97;;;1.60;;
4933;SDS011;2482;49.154;8.254;2023-04-03T16:14:01;2.60;;;1.50;;
4933;SDS011;2482;49.154;8.254;2023-04-03T16:16:28;2.23;;;1.30;;
4933;SDS011;2482;49.154;8.254;2023-04-03T16:18:56;2.20;;;1.67;;
4933;SDS011;2482;49.154;8.254;2023-04-03T16:21:23;1.93;;;1.20;;
4933;SDS011;2482;49.154;8.254;2023-04-03T16:23:50;2.97;;;1.70;;
4933;SDS011;2482;49.154;8.254;2023-04-03T16:26:17;4.87;;;1.50;;
4933;SDS011;2482;49.154;8.254;2023-04-03T16:28:44;2.17;;;1.60;;
4933;SDS011;2482;49.154;8.254;2023-04-03T16:31:12;3.10;;;1.37;;
4933;SDS011;2482;49.154;8.254;2023-04-03T16:33:39;2.90;;;1.53;;
4933;SDS011;2482;49.154;8.254;2023-04-03T16:36:06;2.60;;;1.47;;
4933;SDS011;2482;49.154;8.254;2023-04-03T16:38:33;3.33;;;1.60;;
4933;SDS011;2482;49.154;8.254;2023-04-03T16:41:01;2.07;;;1.30;;
4933;SDS011;2482;49.154;8.254;2023-04-03T16:43:31;1.40;;;1.30;;
4933;SDS011;2482;49.154;8.254;2023-04-03T16:45:58;2.43;;;1.70;;
4933;SDS011;2482;49.154;8.254;2023-04-03T16:48:28;5.83;;;1.60;;
4933;SDS011;2482;49.154;8.254;2023-04-03T16:50:56;3.50;;;1.60;;
4933;SDS011;2482;49.154;8.254;2023-04-03T16:53:23;1.87;;;1.30;;
4933;SDS011;2482;49.154;8.254;2023-04-03T16:55:52;2.13;;;1.40;;
4933;SDS011;2482;49.154;8.254;2023-04-03T16:58:20;1.30;;;1.20;;
4933;SDS011;2482;49.154;8.254;2023-04-03T17:00:49;2.20;;;1.40;;
4933;SDS011;2482;49.154;8.254;2023-04-03T17:03:16;1.33;;;1.23;;
4933;SDS011;2482;49.154;8.254;2023-04-03T17:05:46;1.33;;;1.20;;
4933;SDS011;2482;49.154;8.254;2023-04-03T17:08:15;1.70;;;1.50;;
4933;SDS011;2482;49.154;8.254;2023-04-03T17:10:43;1.77;;;1.50;;
4933;SDS011;2482;49.154;8.254;2023-04-03T17:13:10;5.53;;;2.50;;
4933;SDS011;2482;49.154;8.254;2023-04-03T17:15:37;4.00;;;1.93;;
4933;SDS011;2482;49.154;8.254;2023-04-03T17:18:04;2.83;;;2.00;;
4933;SDS011;2482;49.154;8.254;2023-04-03T17:20:33;1.90;;;1.80;;
4933;SDS011;2482;49.154;8.254;2023-04-03T17:23:00;2.60;;;1.40;;
4933;SDS011;2482;49.154;8.254;2023-04-03T17:25:27;2.23;;;1.73;;
4933;SDS011;2482;49.154;8.254;2023-04-03T17:27:54;2.03;;;1.20;;
4933;SDS011;2482;49.154;8.254;2023-04-03T17:30:22;3.60;;;1.40;;